createdAt,value
2017-07-29T00:00:29.631Z,17.07
2017-07-29T00:01:29.620Z,16.99
2017-07-29T00:02:29.605Z,16.99
2017-07-29T00:03:29.592Z,17.04
2017-07-29T00:04:29.578Z,17.07
2017-07-29T00:05:29.885Z,17.08
2017-07-29T00:06:29.274Z,17.11
2017-07-29T00:07:29.552Z,17.08
2017-07-29T00:08:29.854Z,17.08
2017-07-29T00:09:29.846Z,17.15
2017-07-29T00:10:29.831Z,17.17
2017-07-29T00:11:29.208Z,17.13
2017-07-29T00:12:29.804Z,17.14
2017-07-29T00:13:29.171Z,17.17
2017-07-29T00:14:29.782Z,17.07
2017-07-29T00:15:29.463Z,17.13
2017-07-29T00:16:29.796Z,17.06
2017-07-29T00:17:29.443Z,17.06
2017-07-29T00:18:29.434Z,17.08
2017-07-29T00:19:29.732Z,17.07
2017-07-29T00:20:29.411Z,17.07
2017-07-29T00:21:29.398Z,17.1
2017-07-29T00:22:29.381Z,17.11
2017-07-29T00:23:29.683Z,17.13
2017-07-29T00:24:29.672Z,17.13
2017-07-29T00:25:29.665Z,17.13
2017-07-29T00:26:29.650Z,17.14
2017-07-29T00:27:29.014Z,17.15
2017-07-29T00:28:29.316Z,17.13
2017-07-29T00:29:29.307Z,17.17
2017-07-29T00:30:29.297Z,17.17
2017-07-29T00:31:29.282Z,17.18
2017-07-29T00:32:28.962Z,17.18
2017-07-29T00:33:29.262Z,17.18
2017-07-29T00:34:29.248Z,17.14
2017-07-29T00:35:28.925Z,17.15
2017-07-29T00:36:29.541Z,17.18
2017-07-29T00:37:29.216Z,17.17
2017-07-29T00:38:29.215Z,17.25
2017-07-29T00:39:29.196Z,17.26
2017-07-29T00:40:29.184Z,17.17
2017-07-29T00:41:29.172Z,17.23
2017-07-29T00:42:29.166Z,17.2
2017-07-29T00:43:29.466Z,17.23
2017-07-29T00:44:29.533Z,17.25
2017-07-29T00:45:29.133Z,17.25
2017-07-29T00:46:29.437Z,17.33
2017-07-29T00:47:28.792Z,17.28
2017-07-29T00:48:29.409Z,17.33
2017-07-29T00:49:29.093Z,17.33
2017-07-29T00:50:29.394Z,17.3
2017-07-29T00:51:29.064Z,17.32
2017-07-29T00:52:29.391Z,17.35
2017-07-29T00:53:29.047Z,17.35
2017-07-29T00:54:29.028Z,17.32
2017-07-29T00:55:29.329Z,17.33
2017-07-29T00:56:29.318Z,17.32
2017-07-29T00:57:29.311Z,17.3
2017-07-29T00:58:29.297Z,17.32
2017-07-29T00:59:28.973Z,17.29
2017-07-29T01:00:28.971Z,17.35
2017-07-29T01:01:29.273Z,17.28
2017-07-29T01:02:28.628Z,17.32
2017-07-29T01:03:28.621Z,17.35
2017-07-29T01:04:29.234Z,17.35
2017-07-29T01:05:29.227Z,17.38
2017-07-29T01:06:28.899Z,17.41
2017-07-29T01:07:29.206Z,17.36
2017-07-29T01:08:28.873Z,17.41
2017-07-29T01:09:28.868Z,17.38
2017-07-29T01:10:29.169Z,17.33
2017-07-29T01:11:28.841Z,17.41
2017-07-29T01:12:29.149Z,17.33
2017-07-29T01:13:29.134Z,17.38
2017-07-29T01:14:28.812Z,17.41
2017-07-29T01:15:29.119Z,17.4
2017-07-29T01:16:29.097Z,17.36
2017-07-29T01:17:28.875Z,17.4
2017-07-29T01:18:28.766Z,17.35
2017-07-29T01:19:29.087Z,17.44
2017-07-29T01:20:28.742Z,17.51
2017-07-29T01:21:28.734Z,17.5
2017-07-29T01:22:28.408Z,17.48
2017-07-29T01:23:28.402Z,17.51
2017-07-29T01:24:29.015Z,17.43
2017-07-29T01:25:28.701Z,17.5
2017-07-29T01:26:28.681Z,17.44
2017-07-29T01:27:28.683Z,17.53
2017-07-29T01:28:28.664Z,17.53
2017-07-29T01:29:28.657Z,17.47
2017-07-29T01:30:28.636Z,17.51
2017-07-29T01:31:28.624Z,17.48
2017-07-29T01:32:28.616Z,17.4
2017-07-29T01:33:28.918Z,17.53
2017-07-29T01:34:28.596Z,17.53
2017-07-29T01:35:28.589Z,17.48
2017-07-29T01:36:28.889Z,17.48
2017-07-29T01:37:28.565Z,17.53
2017-07-29T01:38:28.552Z,17.48
2017-07-29T01:39:28.538Z,17.41
2017-07-29T01:40:28.217Z,17.51
2017-07-29T01:41:28.521Z,17.51
2017-07-29T01:42:28.200Z,17.54
2017-07-29T01:43:28.814Z,17.53
2017-07-29T01:44:28.484Z,17.51
2017-07-29T01:45:28.527Z,17.38
2017-07-29T01:46:28.465Z,17.54
2017-07-29T01:47:28.452Z,17.46
2017-07-29T01:48:28.753Z,17.38
2017-07-29T01:49:28.432Z,17.43
2017-07-29T01:50:28.471Z,17.43
2017-07-29T01:51:28.411Z,17.36
2017-07-29T01:52:28.402Z,17.54
2017-07-29T01:53:28.077Z,17.46
2017-07-29T01:54:28.693Z,17.38
2017-07-29T01:55:28.678Z,17.44
2017-07-29T01:56:28.358Z,17.51
2017-07-29T01:57:28.342Z,17.47
2017-07-29T01:58:28.331Z,17.54
2017-07-29T01:59:28.323Z,17.4
2017-07-29T02:00:28.629Z,17.48
2017-07-29T02:01:28.615Z,17.53
2017-07-29T02:02:28.292Z,17.53
2017-07-29T02:03:27.967Z,17.47
2017-07-29T02:04:27.954Z,17.54
2017-07-29T02:05:28.573Z,17.53
2017-07-29T02:06:28.249Z,17.53
2017-07-29T02:07:28.237Z,17.48
2017-07-29T02:08:28.232Z,17.44
2017-07-29T02:09:28.218Z,17.51
2017-07-29T02:10:28.205Z,17.47
2017-07-29T02:11:27.891Z,17.46
2017-07-29T02:12:28.178Z,17.43
2017-07-29T02:13:28.485Z,17.53
2017-07-29T02:14:27.856Z,17.43
2017-07-29T02:15:27.834Z,17.41
2017-07-29T02:16:28.454Z,17.54
2017-07-29T02:17:28.441Z,17.51
2017-07-29T02:18:28.427Z,17.43
2017-07-29T02:19:27.788Z,17.57
2017-07-29T02:20:28.094Z,17.51
2017-07-29T02:21:28.445Z,17.54
2017-07-29T02:22:27.761Z,17.62
2017-07-29T02:23:28.377Z,17.55
2017-07-29T02:24:28.051Z,17.67
2017-07-29T02:25:28.039Z,17.54
2017-07-29T02:26:27.769Z,17.62
2017-07-29T02:27:27.700Z,17.66
2017-07-29T02:28:28.010Z,17.78
2017-07-29T02:29:27.994Z,17.81
2017-07-29T02:30:27.985Z,17.73
2017-07-29T02:31:27.974Z,17.73
2017-07-29T02:32:27.966Z,17.78
2017-07-29T02:33:27.997Z,17.76
2017-07-29T02:34:27.944Z,17.78
2017-07-29T02:35:27.620Z,17.78
2017-07-29T02:36:28.234Z,17.87
2017-07-29T02:37:27.912Z,17.85
2017-07-29T02:38:27.899Z,17.82
2017-07-29T02:39:28.196Z,17.87
2017-07-29T02:40:27.893Z,17.97
2017-07-29T02:41:27.863Z,17.88
2017-07-29T02:42:27.856Z,17.99
2017-07-29T02:43:27.527Z,17.97
2017-07-29T02:44:27.564Z,18.06
2017-07-29T02:45:27.515Z,17.99
2017-07-29T02:46:28.119Z,18.07
2017-07-29T02:47:27.483Z,18.04
2017-07-29T02:48:27.483Z,18.13
2017-07-29T02:49:27.470Z,18.13
2017-07-29T02:50:28.078Z,18.1
2017-07-29T02:51:27.792Z,18.24
2017-07-29T02:52:27.745Z,18.18
2017-07-29T02:53:27.736Z,18.22
2017-07-29T02:54:27.424Z,18.18
2017-07-29T02:55:27.708Z,18.27
2017-07-29T02:56:27.702Z,18.27
2017-07-29T02:57:27.379Z,18.22
2017-07-29T02:58:27.684Z,18.36
2017-07-29T02:59:27.676Z,18.34
2017-07-29T03:00:27.343Z,18.43
2017-07-29T03:01:27.647Z,18.44
2017-07-29T03:02:27.946Z,18.5
2017-07-29T03:03:27.941Z,18.54
2017-07-29T03:04:27.621Z,18.68
2017-07-29T03:05:27.919Z,18.57
2017-07-29T03:06:27.589Z,18.64
2017-07-29T03:07:27.578Z,18.67
2017-07-29T03:08:27.564Z,18.67
2017-07-29T03:09:27.872Z,18.59
2017-07-29T03:10:27.867Z,18.67
2017-07-29T03:11:27.847Z,18.65
2017-07-29T03:12:27.212Z,18.72
2017-07-29T03:13:27.201Z,18.74
2017-07-29T03:14:27.510Z,18.74
2017-07-29T03:15:27.805Z,18.84
2017-07-29T03:16:27.487Z,18.74
2017-07-29T03:17:27.468Z,18.8
2017-07-29T03:18:27.775Z,18.79
2017-07-29T03:19:27.762Z,18.82
2017-07-29T03:20:27.767Z,18.82
2017-07-29T03:21:27.741Z,18.82
2017-07-29T03:22:27.730Z,18.87
2017-07-29T03:23:27.415Z,18.87
2017-07-29T03:24:27.404Z,18.87
2017-07-29T03:25:27.382Z,18.92
2017-07-29T03:26:27.374Z,18.95
2017-07-29T03:27:27.053Z,18.9
2017-07-29T03:28:27.353Z,18.83
2017-07-29T03:29:27.652Z,18.95
2017-07-29T03:30:27.341Z,18.92
2017-07-29T03:31:27.636Z,18.97
2017-07-29T03:32:27.314Z,18.95
2017-07-29T03:33:27.612Z,18.95
2017-07-29T03:34:27.604Z,18.99
2017-07-29T03:35:27.593Z,18.98
2017-07-29T03:36:27.578Z,18.99
2017-07-29T03:37:26.946Z,18.97
2017-07-29T03:38:27.259Z,18.99
2017-07-29T03:39:27.437Z,18.98
2017-07-29T03:40:27.222Z,18.99
2017-07-29T03:41:27.269Z,18.99
2017-07-29T03:42:27.525Z,19.06
2017-07-29T03:43:27.561Z,19.02
2017-07-29T03:44:27.496Z,19.1
2017-07-29T03:45:27.490Z,19.02
2017-07-29T03:46:26.848Z,19.02
2017-07-29T03:47:27.465Z,19.02
2017-07-29T03:48:27.139Z,19.15
2017-07-29T03:49:27.447Z,19.1
2017-07-29T03:50:27.436Z,19.02
2017-07-29T03:51:27.422Z,19.06
2017-07-29T03:52:27.095Z,19.02
2017-07-29T03:53:27.400Z,19.06
2017-07-29T03:54:26.765Z,19.05
2017-07-29T03:55:27.374Z,19.02
2017-07-29T03:56:27.065Z,19.06
2017-07-29T03:57:27.045Z,19.02
2017-07-29T03:58:27.037Z,19.05
2017-07-29T03:59:27.338Z,19.08
2017-07-29T04:00:27.011Z,19.02
2017-07-29T04:01:27.310Z,18.99
2017-07-29T04:02:26.992Z,19.06
2017-07-29T04:03:27.298Z,19.01
2017-07-29T04:04:27.282Z,19.1
2017-07-29T04:05:27.272Z,19.1
2017-07-29T04:06:27.265Z,19.05
2017-07-29T04:07:26.947Z,19.14
2017-07-29T04:08:26.617Z,19.06
2017-07-29T04:09:26.916Z,19.15
2017-07-29T04:10:26.912Z,19.1
2017-07-29T04:11:27.210Z,19.1
2017-07-29T04:12:26.901Z,19.14
2017-07-29T04:13:27.186Z,19.13
2017-07-29T04:14:26.868Z,19.11
2017-07-29T04:15:26.854Z,19.14
2017-07-29T04:16:27.160Z,19.17
2017-07-29T04:17:27.155Z,19.17
2017-07-29T04:18:26.511Z,19.18
2017-07-29T04:19:26.816Z,19.11
2017-07-29T04:20:27.113Z,19.18
2017-07-29T04:21:27.108Z,19.18
2017-07-29T04:22:26.831Z,19.14
2017-07-29T04:23:26.776Z,19.2
2017-07-29T04:24:27.076Z,19.24
2017-07-29T04:25:27.064Z,19.18
2017-07-29T04:26:26.427Z,19.24
2017-07-29T04:27:26.730Z,19.18
2017-07-29T04:28:26.407Z,19.28
2017-07-29T04:29:26.709Z,19.17
2017-07-29T04:30:26.703Z,19.28
2017-07-29T04:31:26.994Z,19.25
2017-07-29T04:32:27.040Z,19.32
2017-07-29T04:33:26.350Z,19.35
2017-07-29T04:34:26.343Z,19.32
2017-07-29T04:35:26.954Z,19.31
2017-07-29T04:36:26.948Z,19.32
2017-07-29T04:37:26.308Z,19.35
2017-07-29T04:38:26.611Z,19.32
2017-07-29T04:39:26.917Z,19.35
2017-07-29T04:40:26.285Z,19.35
2017-07-29T04:41:26.916Z,19.38
2017-07-29T04:42:26.260Z,19.35
2017-07-29T04:43:26.578Z,19.39
2017-07-29T04:44:26.876Z,19.33
2017-07-29T04:45:26.854Z,19.36
2017-07-29T04:46:26.544Z,19.51
2017-07-29T04:47:26.839Z,19.48
2017-07-29T04:48:26.831Z,19.47
2017-07-29T04:49:26.505Z,19.54
2017-07-29T04:50:26.810Z,19.53
2017-07-29T04:51:26.485Z,19.5
2017-07-29T04:52:26.790Z,19.55
2017-07-29T04:53:26.788Z,19.55
2017-07-29T04:54:26.475Z,19.51
2017-07-29T04:55:26.752Z,19.61
2017-07-29T04:56:26.446Z,19.54
2017-07-29T04:57:26.416Z,19.53
2017-07-29T04:58:26.729Z,19.51
2017-07-29T04:59:26.403Z,19.57
2017-07-29T05:00:26.080Z,19.46
2017-07-29T05:01:26.382Z,19.53
2017-07-29T05:02:26.372Z,19.43
2017-07-29T05:03:26.387Z,19.38
2017-07-29T05:04:26.351Z,19.51
2017-07-29T05:05:26.657Z,19.35
2017-07-29T05:06:26.013Z,19.35
2017-07-29T05:07:26.626Z,19.39
2017-07-29T05:08:25.996Z,19.42
2017-07-29T05:09:26.619Z,19.4
2017-07-29T05:10:26.289Z,19.35
2017-07-29T05:11:26.274Z,19.38
2017-07-29T05:12:25.956Z,19.46
2017-07-29T05:13:26.257Z,19.36
2017-07-29T05:14:26.563Z,19.36
2017-07-29T05:15:26.547Z,19.35
2017-07-29T05:16:26.276Z,19.48
2017-07-29T05:17:26.519Z,19.39
2017-07-29T05:18:26.406Z,19.4
2017-07-29T05:19:26.191Z,19.4
2017-07-29T05:20:26.494Z,19.57
2017-07-29T05:21:26.172Z,19.57
2017-07-29T05:22:26.478Z,19.55
2017-07-29T05:23:26.464Z,19.66
2017-07-29T05:24:26.456Z,19.7
2017-07-29T05:25:26.443Z,19.72
2017-07-29T05:26:26.439Z,19.76
2017-07-29T05:27:26.116Z,19.86
2017-07-29T05:28:26.159Z,19.83
2017-07-29T05:29:26.098Z,19.73
2017-07-29T05:30:26.405Z,19.8
2017-07-29T05:31:25.756Z,19.75
2017-07-29T05:32:26.376Z,19.86
2017-07-29T05:33:26.386Z,19.8
2017-07-29T05:34:26.046Z,19.78
2017-07-29T05:35:26.339Z,19.79
2017-07-29T05:36:26.338Z,19.9
2017-07-29T05:37:26.324Z,19.8
2017-07-29T05:38:26.319Z,19.84
2017-07-29T05:39:26.330Z,19.97
2017-07-29T05:40:25.982Z,19.94
2017-07-29T05:41:25.975Z,20
2017-07-29T05:42:25.965Z,20
2017-07-29T05:43:26.002Z,19.97
2017-07-29T05:44:26.259Z,20.03
2017-07-29T05:45:26.244Z,20.1
2017-07-29T05:46:25.927Z,20.1
2017-07-29T05:47:25.939Z,20.15
2017-07-29T05:48:25.953Z,20.18
2017-07-29T05:49:26.233Z,20.18
2017-07-29T05:50:25.885Z,20.21
2017-07-29T05:51:25.884Z,20.23
2017-07-29T05:52:25.862Z,20.27
2017-07-29T05:53:25.863Z,20.23
2017-07-29T05:54:26.158Z,20.21
2017-07-29T05:55:26.154Z,20.18
2017-07-29T05:56:26.136Z,20.24
2017-07-29T05:57:25.814Z,20.23
2017-07-29T05:58:25.806Z,20.23
2017-07-29T05:59:25.800Z,20.2
2017-07-29T06:00:25.796Z,20.24
2017-07-29T06:01:26.102Z,20.21
2017-07-29T06:02:26.113Z,20.25
2017-07-29T06:03:25.766Z,20.31
2017-07-29T06:04:26.060Z,20.27
2017-07-29T06:05:25.747Z,20.31
2017-07-29T06:06:26.041Z,20.24
2017-07-29T06:07:25.733Z,20.25
2017-07-29T06:08:25.719Z,20.3
2017-07-29T06:09:25.386Z,20.3
2017-07-29T06:10:25.693Z,20.24
2017-07-29T06:11:25.699Z,20.24
2017-07-29T06:12:25.683Z,20.25
2017-07-29T06:13:25.450Z,20.28
2017-07-29T06:14:25.666Z,20.27
2017-07-29T06:15:25.963Z,20.35
2017-07-29T06:16:25.319Z,20.25
2017-07-29T06:17:25.971Z,20.27
2017-07-29T06:18:25.358Z,20.28
2017-07-29T06:19:25.613Z,20.39
2017-07-29T06:20:25.287Z,20.47
2017-07-29T06:21:25.901Z,20.43
2017-07-29T06:22:25.896Z,20.46
2017-07-29T06:23:25.568Z,20.53
2017-07-29T06:24:25.874Z,20.62
2017-07-29T06:25:25.864Z,20.79
2017-07-29T06:26:25.858Z,20.83
2017-07-29T06:27:25.543Z,20.84
2017-07-29T06:28:25.416Z,20.96
2017-07-29T06:29:25.515Z,20.99
2017-07-29T06:30:25.817Z,21.01
2017-07-29T06:31:25.498Z,21.08
2017-07-29T06:32:25.486Z,21.13
2017-07-29T06:33:25.490Z,21.08
2017-07-29T06:34:25.797Z,21.08
2017-07-29T06:35:25.458Z,21.05
2017-07-29T06:36:25.467Z,21.05
2017-07-29T06:37:25.762Z,21.06
2017-07-29T06:38:25.796Z,20.96
2017-07-29T06:39:25.423Z,20.99
2017-07-29T06:40:25.419Z,21.06
2017-07-29T06:41:25.730Z,21.08
2017-07-29T06:42:25.704Z,21.08
2017-07-29T06:43:25.074Z,21.11
2017-07-29T06:44:25.693Z,21.06
2017-07-29T06:45:25.060Z,21.11
2017-07-29T06:46:25.363Z,21.16
2017-07-29T06:47:25.668Z,21.14
2017-07-29T06:48:25.347Z,21.13
2017-07-29T06:49:25.340Z,21.17
2017-07-29T06:50:25.331Z,21.09
2017-07-29T06:51:25.631Z,21.2
2017-07-29T06:52:25.624Z,21.24
2017-07-29T06:53:25.300Z,21.2
2017-07-29T06:54:25.293Z,21.2
2017-07-29T06:55:25.282Z,21.14
2017-07-29T06:56:25.583Z,21.23
2017-07-29T06:57:25.267Z,21.26
2017-07-29T06:58:25.569Z,21.24
2017-07-29T06:59:25.560Z,21.26
2017-07-29T07:00:25.290Z,21.26
2017-07-29T07:01:24.915Z,21.26
2017-07-29T07:02:25.538Z,21.26
2017-07-29T07:03:25.223Z,21.38
2017-07-29T07:04:25.518Z,21.29
2017-07-29T07:05:25.508Z,21.32
2017-07-29T07:06:25.197Z,21.38
2017-07-29T07:07:24.874Z,21.41
2017-07-29T07:08:25.484Z,21.35
2017-07-29T07:09:25.162Z,21.45
2017-07-29T07:10:25.471Z,21.45
2017-07-29T07:11:25.148Z,21.3
2017-07-29T07:12:25.141Z,21.39
2017-07-29T07:13:25.132Z,21.5
2017-07-29T07:14:25.122Z,21.54
2017-07-29T07:15:25.129Z,21.5
2017-07-29T07:16:25.157Z,21.5
2017-07-29T07:17:25.097Z,21.5
2017-07-29T07:18:25.294Z,21.42
2017-07-29T07:19:25.393Z,21.42
2017-07-29T07:20:25.385Z,21.41
2017-07-29T07:21:25.427Z,21.42
2017-07-29T07:22:24.767Z,21.38
2017-07-29T07:23:25.052Z,21.29
2017-07-29T07:24:25.366Z,21.39
2017-07-29T07:25:25.348Z,21.36
2017-07-29T07:26:25.020Z,21.32
2017-07-29T07:27:25.326Z,21.38
2017-07-29T07:28:25.343Z,21.32
2017-07-29T07:29:25.355Z,21.29
2017-07-29T07:30:25.339Z,21.3
2017-07-29T07:31:24.681Z,21.38
2017-07-29T07:32:25.292Z,21.42
2017-07-29T07:33:24.968Z,21.35
2017-07-29T07:34:25.292Z,21.38
2017-07-29T07:35:24.953Z,21.5
2017-07-29T07:36:24.943Z,21.48
2017-07-29T07:37:25.246Z,21.92
2017-07-29T07:38:25.239Z,21.83
2017-07-29T07:39:24.921Z,21.72
2017-07-29T07:40:24.594Z,21.78
2017-07-29T07:41:25.218Z,21.71
2017-07-29T07:42:25.206Z,21.74
2017-07-29T07:43:25.200Z,21.97
2017-07-29T07:44:24.567Z,21.99
2017-07-29T07:45:25.182Z,21.97
2017-07-29T07:46:25.173Z,22.06
2017-07-29T07:47:25.167Z,21.97
2017-07-29T07:48:24.871Z,21.91
2017-07-29T07:49:24.845Z,22.01
2017-07-29T07:50:24.831Z,22.27
2017-07-29T07:51:25.132Z,22.22
2017-07-29T07:52:24.812Z,22.35
2017-07-29T07:53:25.125Z,22.25
2017-07-29T07:54:25.118Z,22.16
2017-07-29T07:55:25.108Z,22.22
2017-07-29T07:56:25.114Z,22.46
2017-07-29T07:57:24.788Z,22.44
2017-07-29T07:58:25.082Z,22.44
2017-07-29T07:59:24.768Z,22.57
2017-07-29T08:00:25.074Z,23.26
2017-07-29T08:01:24.756Z,23.95
2017-07-29T08:02:25.074Z,24.02
2017-07-29T08:03:25.048Z,24.34
2017-07-29T08:04:25.053Z,24.2
2017-07-29T08:05:25.056Z,24.41
2017-07-29T08:06:24.719Z,24.54
2017-07-29T08:07:25.028Z,24.73
2017-07-29T08:08:24.711Z,24.56
2017-07-29T08:09:24.386Z,24.32
2017-07-29T08:10:24.386Z,23.98
2017-07-29T08:11:24.699Z,23.49
2017-07-29T08:12:24.701Z,23.87
2017-07-29T08:13:24.992Z,23.62
2017-07-29T08:14:24.389Z,23.47
2017-07-29T08:15:24.358Z,23.31
2017-07-29T08:16:24.971Z,23.11
2017-07-29T08:17:24.671Z,23.02
2017-07-29T08:18:24.970Z,23.09
2017-07-29T08:19:24.653Z,23.09
2017-07-29T08:20:24.958Z,22.84
2017-07-29T08:21:24.949Z,22.6
2017-07-29T08:22:24.629Z,22.62
2017-07-29T08:23:24.635Z,22.47
2017-07-29T08:24:24.615Z,22.47
2017-07-29T08:25:24.921Z,22.28
2017-07-29T08:26:24.608Z,22.2
2017-07-29T08:27:24.917Z,22.07
2017-07-29T08:28:24.902Z,22.06
2017-07-29T08:29:24.900Z,22.12
2017-07-29T08:30:24.581Z,21.95
2017-07-29T08:31:24.887Z,21.94
2017-07-29T08:32:24.573Z,21.78
2017-07-29T08:33:24.563Z,21.76
2017-07-29T08:34:24.551Z,21.72
2017-07-29T08:35:24.894Z,21.64
2017-07-29T08:36:24.234Z,21.63
2017-07-29T08:37:24.538Z,21.67
2017-07-29T08:38:24.523Z,21.72
2017-07-29T08:39:24.518Z,21.74
2017-07-29T08:40:24.200Z,21.78
2017-07-29T08:41:24.507Z,21.81
2017-07-29T08:42:24.810Z,21.94
2017-07-29T08:43:24.802Z,22.12
2017-07-29T08:44:24.795Z,22.06
2017-07-29T08:45:24.786Z,22.12
2017-07-29T08:46:24.781Z,22.23
2017-07-29T08:47:24.774Z,22.31
2017-07-29T08:48:24.139Z,22.5
2017-07-29T08:49:24.447Z,22.52
2017-07-29T08:50:24.132Z,22.6
2017-07-29T08:51:24.752Z,22.62
2017-07-29T08:52:24.438Z,22.59
2017-07-29T08:53:24.412Z,22.49
2017-07-29T08:54:24.721Z,22.49
2017-07-29T08:55:24.403Z,22.57
2017-07-29T08:56:24.395Z,22.65
2017-07-29T08:57:24.388Z,22.71
2017-07-29T08:58:24.691Z,22.68
2017-07-29T08:59:24.378Z,22.71
2017-07-29T09:00:24.370Z,22.75
2017-07-29T09:01:24.360Z,22.59
2017-07-29T09:02:24.671Z,22.64
2017-07-29T09:03:24.355Z,22.71
2017-07-29T09:04:24.041Z,22.8
2017-07-29T09:05:24.346Z,22.96
2017-07-29T09:06:24.221Z,22.99
2017-07-29T09:07:24.332Z,23.07
2017-07-29T09:08:24.317Z,23.12
2017-07-29T09:09:24.627Z,23.07
2017-07-29T09:10:24.304Z,22.96
2017-07-29T09:11:24.608Z,22.93
2017-07-29T09:12:24.605Z,22.9
2017-07-29T09:13:24.598Z,22.93
2017-07-29T09:14:24.288Z,23.07
2017-07-29T09:15:24.276Z,23.14
2017-07-29T09:16:24.271Z,23.17
2017-07-29T09:17:24.262Z,23.15
2017-07-29T09:18:24.768Z,22.99
2017-07-29T09:19:24.567Z,22.96
2017-07-29T09:20:23.928Z,22.89
2017-07-29T09:21:24.245Z,22.94
2017-07-29T09:22:24.542Z,22.99
2017-07-29T09:23:24.546Z,23.12
2017-07-29T09:24:24.220Z,23.26
2017-07-29T09:25:24.563Z,23.31
2017-07-29T09:26:24.204Z,23.38
2017-07-29T09:27:24.516Z,23.52
2017-07-29T09:28:24.518Z,23.4
2017-07-29T09:29:24.499Z,23.47
2017-07-29T09:30:23.871Z,23.4
2017-07-29T09:31:23.865Z,23.45
2017-07-29T09:32:23.857Z,23.47
2017-07-29T09:33:24.476Z,23.39
2017-07-29T09:34:24.487Z,23.29
2017-07-29T09:35:24.472Z,23.32
2017-07-29T09:36:24.161Z,23.23
2017-07-29T09:37:24.457Z,23.29
2017-07-29T09:38:24.132Z,23.4
2017-07-29T09:39:24.125Z,23.38
2017-07-29T09:40:24.194Z,23.39
2017-07-29T09:41:24.428Z,23.34
2017-07-29T09:42:24.111Z,23.26
2017-07-29T09:43:24.420Z,23.31
2017-07-29T09:44:24.414Z,23.31
2017-07-29T09:45:24.424Z,23.38
2017-07-29T09:46:24.405Z,23.4
2017-07-29T09:47:24.397Z,23.29
2017-07-29T09:48:24.073Z,23.45
2017-07-29T09:49:24.071Z,23.45
2017-07-29T09:50:24.371Z,23.62
2017-07-29T09:51:24.379Z,23.62
2017-07-29T09:52:24.362Z,23.7
2017-07-29T09:53:24.371Z,23.77
2017-07-29T09:54:23.723Z,23.8
2017-07-29T09:55:23.722Z,23.76
2017-07-29T09:56:24.342Z,23.68
2017-07-29T09:57:24.022Z,23.77
2017-07-29T09:58:24.022Z,23.79
2017-07-29T09:59:24.010Z,23.77
2017-07-29T10:00:24.009Z,23.79
2017-07-29T10:01:24.316Z,23.71
2017-07-29T10:02:23.681Z,23.62
2017-07-29T10:03:23.670Z,23.62
2017-07-29T10:04:24.290Z,23.67
2017-07-29T10:05:24.023Z,23.64
2017-07-29T10:06:24.282Z,23.61
2017-07-29T10:07:24.286Z,23.62
2017-07-29T10:08:23.956Z,23.58
2017-07-29T10:09:23.958Z,23.43
2017-07-29T10:10:23.943Z,23.4
2017-07-29T10:11:23.976Z,23.32
2017-07-29T10:12:24.274Z,23.27
2017-07-29T10:13:23.825Z,23.11
2017-07-29T10:14:23.932Z,23.11
2017-07-29T10:15:23.616Z,23.04
2017-07-29T10:16:23.915Z,22.99
2017-07-29T10:17:24.214Z,23.07
2017-07-29T10:18:23.901Z,23.17
2017-07-29T10:19:23.891Z,23.02
2017-07-29T10:20:24.206Z,23.07
2017-07-29T10:21:24.200Z,23.04
2017-07-29T10:22:23.882Z,23.08
2017-07-29T10:23:24.229Z,23.05
2017-07-29T10:24:23.862Z,23.07
2017-07-29T10:25:24.164Z,23.02
2017-07-29T10:26:23.851Z,22.94
2017-07-29T10:27:23.857Z,22.94
2017-07-29T10:28:23.553Z,22.87
2017-07-29T10:29:23.843Z,22.84
2017-07-29T10:30:23.825Z,22.83
2017-07-29T10:31:23.815Z,22.82
2017-07-29T10:32:23.804Z,22.78
2017-07-29T10:33:23.797Z,22.87
2017-07-29T10:39:09.858Z,24.42
2017-07-29T10:40:09.174Z,24.57
2017-07-29T10:41:09.793Z,24.82
2017-07-29T10:42:09.787Z,24.94
2017-07-29T10:43:09.164Z,25.06
2017-07-29T10:44:09.772Z,25.19
2017-07-29T10:45:09.761Z,25.02
2017-07-29T10:46:09.762Z,24.9
2017-07-29T10:47:09.762Z,24.67
2017-07-29T10:48:09.433Z,24.54
2017-07-29T10:49:09.117Z,24.42
2017-07-29T10:50:09.500Z,24.31
2017-07-29T10:51:09.748Z,24.17
2017-07-29T10:52:09.748Z,24.05
2017-07-29T10:53:09.418Z,23.9
2017-07-29T10:54:09.462Z,23.79
2017-07-29T10:55:09.091Z,23.68
2017-07-29T10:56:09.393Z,23.65
2017-07-29T10:57:09.077Z,23.58
2017-07-29T10:58:09.377Z,23.67
2017-07-29T10:59:09.378Z,23.64
2017-07-29T11:00:09.368Z,23.68
2017-07-29T11:01:09.051Z,23.62
2017-07-29T11:02:09.669Z,23.64
2017-07-29T11:03:09.352Z,23.65
2017-07-29T11:04:09.343Z,23.76
2017-07-29T11:05:09.350Z,23.68
2017-07-29T11:06:09.334Z,23.68
2017-07-29T11:07:09.645Z,23.62
2017-07-29T11:08:09.631Z,23.65
2017-07-29T11:09:09.630Z,23.65
2017-07-29T11:10:09.312Z,23.8
2017-07-29T11:11:09.309Z,23.86
2017-07-29T11:12:09.615Z,24.19
2017-07-29T11:13:08.986Z,24.38
2017-07-29T11:14:08.979Z,24.29
2017-07-29T11:15:09.282Z,24.41
2017-07-29T11:16:09.600Z,24.45
2017-07-29T11:17:09.267Z,24.49
2017-07-29T11:18:09.791Z,24.52
2017-07-29T11:19:09.579Z,24.54
2017-07-29T11:20:09.254Z,24.61
2017-07-29T11:21:08.936Z,24.8
2017-07-29T11:22:09.243Z,24.82
2017-07-29T11:23:09.555Z,24.9
2017-07-29T11:24:08.920Z,25.07
2017-07-29T11:25:09.230Z,25.17
2017-07-29T11:26:09.236Z,25.43
2017-07-29T11:27:08.906Z,25.74
2017-07-29T11:28:09.224Z,26.01
2017-07-29T11:29:09.215Z,26.12
2017-07-29T11:30:09.210Z,26.5
2017-07-29T11:31:09.524Z,26.58
2017-07-29T11:32:09.203Z,26.49
2017-07-29T11:33:08.882Z,26.76
2017-07-29T11:34:09.203Z,26.94
2017-07-29T11:35:09.199Z,26.76
2017-07-29T11:36:09.502Z,26.72
2017-07-29T11:37:09.190Z,26.72
2017-07-29T11:38:09.500Z,26.35
2017-07-29T11:39:09.239Z,26.08
2017-07-29T11:40:08.870Z,25.79
2017-07-29T11:41:09.173Z,25.37
2017-07-29T11:42:08.868Z,25.17
2017-07-29T11:43:09.170Z,25.16
2017-07-29T11:44:09.166Z,25.01
2017-07-29T11:45:09.163Z,24.95
2017-07-29T11:46:09.157Z,25.02
2017-07-29T11:47:09.482Z,24.95
2017-07-29T11:48:09.152Z,24.92
2017-07-29T11:49:09.484Z,24.94
2017-07-29T11:50:09.373Z,24.92
2017-07-29T11:51:09.454Z,25.3
2017-07-29T11:52:09.502Z,25.83
2017-07-29T11:53:09.141Z,25.9
2017-07-29T11:54:08.815Z,26.04
2017-07-29T11:55:09.449Z,26.52
2017-07-29T11:56:09.433Z,26.54
2017-07-29T11:57:09.121Z,26.74
2017-07-29T11:58:09.425Z,26.57
2017-07-29T11:59:09.111Z,26.52
2017-07-29T12:00:09.109Z,26.47
2017-07-29T12:01:09.106Z,26.59
2017-07-29T12:02:09.427Z,26.84
2017-07-29T12:03:09.096Z,27.24
2017-07-29T12:04:09.099Z,27.59
2017-07-29T12:05:09.097Z,27.73
2017-07-29T12:06:08.782Z,27.88
2017-07-29T12:07:09.086Z,27.92
2017-07-29T12:08:09.089Z,27.86
2017-07-29T12:09:09.091Z,27.71
2017-07-29T12:10:09.400Z,27.57
2017-07-29T12:11:09.400Z,27.2
2017-07-29T12:12:09.089Z,27.06
2017-07-29T12:13:09.082Z,26.79
2017-07-29T12:14:09.397Z,26.52
2017-07-29T12:15:08.767Z,26.55
2017-07-29T12:16:08.776Z,26.39
2017-07-29T12:17:09.095Z,26.35
2017-07-29T12:18:09.071Z,26.29
2017-07-29T12:19:09.074Z,26.12
2017-07-29T12:20:09.386Z,25.97
2017-07-29T12:21:09.070Z,25.84
2017-07-29T12:22:09.391Z,25.82
2017-07-29T12:23:08.747Z,25.77
2017-07-29T12:24:09.072Z,25.67
2017-07-29T12:25:09.372Z,25.79
2017-07-29T12:26:08.743Z,25.82
2017-07-29T12:27:09.051Z,25.74
2017-07-29T12:28:09.044Z,25.97
2017-07-29T12:29:09.356Z,26.27
2017-07-29T12:30:09.049Z,26.4
2017-07-29T12:31:09.080Z,26.46
2017-07-29T12:32:09.349Z,27.02
2017-07-29T12:33:09.027Z,27.48
2017-07-29T12:34:09.035Z,27.61
2017-07-29T12:35:09.075Z,27.92
2017-07-29T12:36:08.716Z,28.31
2017-07-29T12:37:09.350Z,28.54
2017-07-29T12:38:09.348Z,28.96
2017-07-29T12:39:09.025Z,29.11
2017-07-29T12:40:09.330Z,28.91
2017-07-29T12:41:09.331Z,28.7
2017-07-29T12:42:08.702Z,28.38
2017-07-29T12:43:09.363Z,28.6
2017-07-29T12:44:09.382Z,28.38
2017-07-29T12:45:08.710Z,28.32
2017-07-29T12:46:09.328Z,28.4
2017-07-29T12:47:09.045Z,28.36
2017-07-29T12:48:09.329Z,28.06
2017-07-29T12:49:09.333Z,27.91
2017-07-29T12:50:09.337Z,27.64
2017-07-29T12:51:09.017Z,27.31
2017-07-29T12:52:08.724Z,27.17
2017-07-29T12:53:09.024Z,27.16
2017-07-29T12:54:09.585Z,27.17
2017-07-29T12:55:09.027Z,26.99
2017-07-29T12:56:09.013Z,26.81
2017-07-29T12:57:09.012Z,26.68
2017-07-29T12:58:09.331Z,26.47
2017-07-29T12:59:09.327Z,26.36
2017-07-29T13:00:09.327Z,26.12